Time;durP1;ratioP1;P1;durP2;ratioP2;P2;SDS_P1;SDS_P2;PMS_P1;PMS_P2;Temp;Humidity;BMP_temperature;BMP_pressure;BME280_temperature;BME280_humidity;BME280_pressure;Samples;Min_cycle;Max_cycle;Signal;HPM_P1;HPM_P2
2021/12/10 00:00:18;;;;;;;10.27;3.72;;;4.30;99.90;;;;;;4955622;28;20158;-49
2021/12/10 00:02:46;;;;;;;8.48;3.80;;;4.30;99.90;;;;;;4956994;28;20034;-60
2021/12/10 00:05:19;;;;;;;7.75;4.15;;;4.30;99.90;;;;;;4955730;28;20027;-51
2021/12/10 00:07:45;;;;;;;13.85;5.40;;;4.40;99.90;;;;;;4958349;28;20030;-56
2021/12/10 00:10:17;;;;;;;16.42;5.47;;;4.40;99.90;;;;;;4954134;28;20046;-52
2021/12/10 00:12:49;;;;;;;14.68;4.13;;;4.30;99.90;;;;;;4973096;28;20031;-51
2021/12/10 00:15:16;;;;;;;14.27;5.32;;;4.30;99.90;;;;;;4955365;28;20035;-44
2021/12/10 00:17:42;;;;;;;7.82;3.80;;;4.40;99.90;;;;;;4954832;28;20531;-44
2021/12/10 00:20:10;;;;;;;16.10;4.38;;;4.50;99.90;;;;;;4955911;28;20062;-46
2021/12/10 00:22:46;;;;;;;9.85;4.82;;;4.50;99.90;;;;;;4956070;28;20090;-48
2021/12/10 00:25:19;;;;;;;8.90;3.92;;;4.50;99.90;;;;;;4955902;28;20042;-44
2021/12/10 00:27:51;;;;;;;10.27;4.03;;;4.50;99.90;;;;;;4954760;28;20031;-48
2021/12/10 00:30:28;;;;;;;15.38;4.70;;;4.50;99.90;;;;;;4955567;29;20030;-49
2021/12/10 00:33:11;;;;;;;15.10;5.05;;;4.50;99.90;;;;;;4956513;28;20098;-51
2021/12/10 00:35:38;;;;;;;14.65;4.93;;;4.40;99.90;;;;;;4955873;29;20023;-49
2021/12/10 00:38:04;;;;;;;10.48;4.82;;;4.40;99.90;;;;;;4954461;29;20028;-45
2021/12/10 00:40:31;;;;;;;13.25;6.03;;;4.40;99.90;;;;;;4955623;28;20023;-45
2021/12/10 00:42:57;;;;;;;35.13;17.30;;;4.40;99.90;;;;;;4955525;28;20508;-44
2021/12/10 00:45:23;;;;;;;75.18;36.85;;;4.40;99.90;;;;;;4955660;28;20054;-48
2021/12/10 00:47:50;;;;;;;16.25;6.10;;;4.40;99.90;;;;;;4955638;28;20031;-46
2021/12/10 00:50:21;;;;;;;12.02;5.85;;;4.40;99.90;;;;;;4955296;28;20027;-44
2021/12/10 00:52:47;;;;;;;18.48;6.38;;;4.30;99.90;;;;;;4955377;28;20434;-46
2021/12/10 00:55:15;;;;;;;16.02;5.82;;;4.40;99.90;;;;;;4955502;29;20057;-45
2021/12/10 00:57:40;;;;;;;16.85;5.90;;;4.50;99.90;;;;;;4955974;29;20035;-44
2021/12/10 01:00:10;;;;;;;23.73;5.95;;;4.40;99.90;;;;;;4955170;28;20050;-47
2021/12/10 01:02:36;;;;;;;18.05;6.57;;;4.50;99.90;;;;;;4955478;28;20086;-44
2021/12/10 01:05:02;;;;;;;16.30;5.63;;;4.50;99.90;;;;;;4954103;28;20035;-44
2021/12/10 01:07:32;;;;;;;14.80;5.80;;;4.50;99.90;;;;;;4955364;29;20443;-47
2021/12/10 01:10:04;;;;;;;10.60;5.20;;;4.40;99.90;;;;;;4953633;28;20401;-43
2021/12/10 01:12:38;;;;;;;13.38;5.35;;;4.50;99.90;;;;;;4954033;28;20442;-45
2021/12/10 01:28:49;;;;;;;10.35;4.75;;;4.50;99.90;;;;;;4954456;28;20090;-44
2021/12/10 01:31:15;;;;;;;16.27;6.45;;;4.50;99.90;;;;;;4954852;28;20069;-44
2021/12/10 01:33:43;;;;;;;13.38;5.40;;;4.50;99.90;;;;;;4954657;28;20032;-43
2021/12/10 01:36:10;;;;;;;13.25;5.45;;;4.50;99.90;;;;;;4954837;28;20028;-45
2021/12/10 01:38:42;;;;;;;12.52;4.60;;;4.40;99.90;;;;;;4953487;28;20038;-44
2021/12/10 01:41:13;;;;;;;8.88;4.35;;;4.40;99.90;;;;;;4953054;28;20024;-48
2021/12/10 01:43:40;;;;;;;12.70;4.40;;;4.50;99.90;;;;;;4954570;29;20030;-45
2021/12/10 01:46:11;;;;;;;17.23;5.75;;;4.60;99.90;;;;;;4954364;28;20429;-45
2021/12/10 01:48:43;;;;;;;13.23;4.28;;;4.60;99.90;;;;;;4954719;28;20023;-43
2021/12/10 01:51:12;;;;;;;10.30;5.18;;;4.50;99.90;;;;;;4954288;29;20019;-45
2021/12/10 01:53:40;;;;;;;10.85;4.97;;;4.60;99.90;;;;;;4954469;29;20094;-43
2021/12/10 01:56:11;;;;;;;13.13;4.82;;;4.50;99.90;;;;;;4954348;28;20102;-45
2021/12/10 01:58:37;;;;;;;8.18;3.95;;;4.50;99.90;;;;;;4954482;28;20023;-43
2021/12/10 02:01:10;;;;;;;8.13;3.55;;;4.50;99.90;;;;;;4954070;28;20287;-43
2021/12/10 02:03:37;;;;;;;11.27;4.65;;;4.50;99.90;;;;;;4954150;29;20448;-43
2021/12/10 02:06:05;;;;;;;6.40;3.03;;;4.70;99.90;;;;;;4954047;28;20035;-42
2021/12/10 02:08:31;;;;;;;18.85;3.22;;;4.80;99.90;;;;;;4954412;28;20046;-44
2021/12/10 02:10:56;;;;;;;13.55;2.90;;;4.90;99.90;;;;;;4954290;29;20019;-44
2021/12/10 02:13:22;;;;;;;12.77;3.70;;;4.90;99.90;;;;;;4954099;28;20401;-48
2021/12/10 02:15:48;;;;;;;7.03;2.70;;;4.90;99.90;;;;;;4954110;29;20118;-46
2021/12/10 02:18:13;;;;;;;9.13;2.72;;;4.90;99.90;;;;;;4954216;28;20019;-43
2021/12/10 02:21:12;;;;;;;6.65;2.55;;;4.90;99.90;;;;;;4953749;29;20058;-45
2021/12/10 02:23:41;;;;;;;6.68;2.38;;;4.90;99.90;;;;;;4952694;28;20034;-45
2021/12/10 02:26:12;;;;;;;6.30;1.80;;;4.90;99.90;;;;;;4953699;28;20028;-49
2021/12/10 02:28:38;;;;;;;3.22;1.95;;;4.80;99.90;;;;;;4953275;29;20034;-45
2021/12/10 02:31:05;;;;;;;12.63;3.60;;;4.80;99.90;;;;;;4953515;28;20611;-46
2021/12/10 02:33:31;;;;;;;9.40;3.05;;;4.80;99.90;;;;;;4953689;29;20038;-44
2021/12/10 02:35:57;;;;;;;15.90;3.05;;;4.80;99.90;;;;;;4953782;29;20035;-48
2021/12/10 02:38:22;;;;;;;18.20;2.30;;;4.80;99.90;;;;;;4953601;28;20023;-44
2021/12/10 02:40:50;;;;;;;6.68;2.63;;;4.80;99.90;;;;;;4953546;29;20027;-45
2021/12/10 02:43:17;;;;;;;12.10;2.50;;;4.80;99.90;;;;;;4953570;28;20075;-48
2021/12/10 02:45:47;;;;;;;10.27;3.90;;;4.70;99.90;;;;;;4953665;28;20393;-45
2021/12/10 02:48:13;;;;;;;14.52;3.53;;;4.70;99.90;;;;;;4953632;29;20024;-46
2021/12/10 02:50:39;;;;;;;7.00;2.10;;;4.70;99.90;;;;;;4953515;28;20024;-45
2021/12/10 02:53:07;;;;;;;7.80;2.58;;;4.70;99.90;;;;;;4953431;29;20030;-44
2021/12/10 02:55:34;;;;;;;15.77;3.55;;;4.70;99.90;;;;;;4953579;28;20441;-44
2021/12/10 02:58:05;;;;;;;16.60;3.97;;;4.60;99.90;;;;;;4953645;28;20032;-43
2021/12/10 03:00:35;;;;;;;9.75;2.83;;;4.60;99.90;;;;;;4953585;28;20019;-45
2021/12/10 03:03:01;;;;;;;6.32;3.15;;;4.40;99.90;;;;;;4953431;28;20110;-44
2021/12/10 03:05:28;;;;;;;8.48;3.80;;;4.40;99.90;;;;;;4953813;28;20028;-50
2021/12/10 03:07:54;;;;;;;12.60;3.80;;;4.30;99.90;;;;;;4953688;29;20102;-47
2021/12/10 03:10:24;;;;;;;14.57;3.63;;;4.20;99.90;;;;;;4953599;28;20024;-48
2021/12/10 03:12:50;;;;;;;16.00;6.18;;;4.20;99.90;;;;;;4952523;29;20064;-49
2021/12/10 03:15:17;;;;;;;8.75;4.10;;;4.10;99.90;;;;;;4953737;28;20062;-44
2021/12/10 03:17:44;;;;;;;11.63;3.85;;;4.00;99.90;;;;;;4953355;28;20023;-44
2021/12/10 03:20:12;;;;;;;8.55;4.30;;;3.90;99.90;;;;;;4952943;29;20031;-44
2021/12/10 03:22:39;;;;;;;11.65;4.70;;;3.90;99.90;;;;;;4953093;28;20521;-43
2021/12/10 03:25:10;;;;;;;19.65;5.28;;;3.80;99.90;;;;;;4952354;28;20490;-45
2021/12/10 03:27:36;;;;;;;16.60;4.18;;;3.80;99.90;;;;;;4953482;28;20035;-44
2021/12/10 03:30:03;;;;;;;14.57;4.50;;;3.70;99.90;;;;;;4952829;28;20501;-44
2021/12/10 03:32:30;;;;;;;12.80;5.05;;;3.60;99.90;;;;;;4953119;28;20023;-45
2021/12/10 03:35:09;;;;;;;17.42;4.75;;;3.50;99.90;;;;;;4953230;29;20027;-45
2021/12/10 03:37:36;;;;;;;7.65;4.07;;;3.50;99.90;;;;;;4952201;28;20417;-46
2021/12/10 03:40:04;;;;;;;16.10;4.68;;;3.40;99.90;;;;;;4954101;28;20027;-43
2021/12/10 03:42:30;;;;;;;11.02;4.28;;;3.40;99.90;;;;;;4953373;28;20078;-44
2021/12/10 03:44:56;;;;;;;17.05;4.72;;;3.30;99.90;;;;;;4953114;28;20482;-44
2021/12/10 03:47:21;;;;;;;16.48;4.55;;;3.30;99.90;;;;;;4951787;28;20122;-48
2021/12/10 03:49:47;;;;;;;8.00;4.88;;;3.30;99.90;;;;;;4952087;28;20032;-46
2021/12/10 03:52:13;;;;;;;11.85;5.47;;;3.20;99.90;;;;;;4956604;28;20410;-46
2021/12/10 03:54:40;;;;;;;8.85;4.50;;;3.30;99.90;;;;;;4956540;28;20023;-44
2021/12/10 03:57:06;;;;;;;13.00;4.85;;;3.20;99.90;;;;;;4956603;29;20510;-44
2021/12/10 03:59:34;;;;;;;16.30;5.97;;;3.20;99.90;;;;;;4956321;28;20078;-44
2021/12/10 04:01:59;;;;;;;12.10;4.60;;;3.20;99.90;;;;;;4956497;28;20023;-44
2021/12/10 04:04:30;;;;;;;10.52;3.67;;;3.20;99.90;;;;;;4956257;28;20042;-44
2021/12/10 04:06:57;;;;;;;7.53;3.63;;;3.20;99.90;;;;;;4955003;28;20030;-46
2021/12/10 04:09:24;;;;;;;10.85;3.85;;;3.20;99.90;;;;;;4956109;28;20059;-46
2021/12/10 04:11:51;;;;;;;12.85;4.32;;;3.20;99.90;;;;;;4956303;28;20031;-45
2021/12/10 04:14:17;;;;;;;13.18;4.00;;;3.20;99.90;;;;;;4956062;29;20069;-45
2021/12/10 04:16:43;;;;;;;8.77;3.88;;;3.10;99.90;;;;;;4956096;28;20031;-44
2021/12/10 04:19:12;;;;;;;8.40;4.05;;;3.10;99.90;;;;;;4955888;28;20038;-48
2021/12/10 04:21:41;;;;;;;11.15;4.03;;;3.20;99.90;;;;;;4956093;28;20030;-45
2021/12/10 04:24:20;;;;;;;9.75;3.38;;;3.10;99.90;;;;;;4956040;29;20398;-45
2021/12/10 04:26:47;;;;;;;18.00;4.07;;;3.10;99.90;;;;;;4955937;28;20114;-46
2021/12/10 04:29:13;;;;;;;12.02;3.33;;;3.10;99.90;;;;;;4955386;29;20547;-44
2021/12/10 04:31:39;;;;;;;12.20;2.90;;;3.10;99.90;;;;;;4954592;28;20078;-46
2021/12/10 04:34:05;;;;;;;8.88;3.42;;;3.10;99.90;;;;;;4955753;28;20035;-45
2021/12/10 04:36:32;;;;;;;9.77;3.00;;;3.00;99.90;;;;;;4955664;28;20028;-46
2021/12/10 04:38:58;;;;;;;6.93;3.03;;;3.10;99.90;;;;;;4955761;29;20031;-43
2021/12/10 04:41:24;;;;;;;8.18;3.33;;;3.00;99.90;;;;;;4955504;28;20105;-47
2021/12/10 04:43:50;;;;;;;9.05;3.22;;;3.00;99.90;;;;;;4955625;28;20497;-47
2021/12/10 04:46:16;;;;;;;6.80;3.05;;;3.00;99.90;;;;;;4955626;28;20027;-48
2021/12/10 04:48:47;;;;;;;8.70;3.85;;;2.90;99.90;;;;;;4955711;28;20060;-46
2021/12/10 04:51:13;;;;;;;8.98;2.95;;;2.90;99.90;;;;;;4955585;28;20103;-48
2021/12/10 04:53:38;;;;;;;9.85;3.25;;;2.90;99.90;;;;;;4955356;28;20152;-44
2021/12/10 04:56:04;;;;;;;6.32;2.85;;;2.90;99.90;;;;;;4955606;29;20048;-44
2021/12/10 04:58:32;;;;;;;12.73;3.70;;;2.90;99.90;;;;;;4955316;28;20089;-47
2021/12/10 05:00:57;;;;;;;16.27;4.10;;;3.00;99.90;;;;;;4953385;28;20090;-43
2021/12/10 05:03:23;;;;;;;9.40;4.07;;;3.00;99.90;;;;;;4954685;28;20035;-44
2021/12/10 05:05:48;;;;;;;17.60;2.88;;;3.00;99.90;;;;;;4955081;28;20046;-45
2021/12/10 05:08:14;;;;;;;9.30;3.30;;;3.10;99.90;;;;;;4955269;29;20480;-43
2021/12/10 05:10:40;;;;;;;5.90;2.30;;;3.20;99.90;;;;;;4953494;28;20023;-48
2021/12/10 05:13:06;;;;;;;12.98;3.10;;;3.20;99.90;;;;;;4955066;29;20040;-43
2021/12/10 05:15:34;;;;;;;6.05;2.97;;;3.20;99.90;;;;;;4955043;29;20406;-45
2021/12/10 05:18:00;;;;;;;5.47;3.00;;;3.10;99.90;;;;;;4955136;28;20085;-45
2021/12/10 05:20:34;;;;;;;11.98;3.08;;;3.10;99.90;;;;;;4954518;28;20031;-49
2021/12/10 05:23:00;;;;;;;7.15;2.60;;;3.10;99.90;;;;;;4954814;28;20027;-44
2021/12/10 05:25:27;;;;;;;10.73;3.28;;;3.00;99.90;;;;;;4953611;28;20426;-44
2021/12/10 05:27:53;;;;;;;6.43;3.55;;;3.10;99.90;;;;;;4954789;28;20027;-44
2021/12/10 05:30:22;;;;;;;5.70;3.05;;;3.10;99.90;;;;;;4954021;28;20537;-45
2021/12/10 05:32:49;;;;;;;7.70;3.50;;;3.00;99.90;;;;;;4954745;28;20102;-45
2021/12/10 05:35:16;;;;;;;11.43;3.42;;;3.00;99.90;;;;;;4954862;28;20051;-44
2021/12/10 05:37:42;;;;;;;14.00;4.03;;;3.00;99.90;;;;;;4954756;28;20031;-49
2021/12/10 05:40:12;;;;;;;6.63;2.70;;;3.00;99.90;;;;;;4954443;29;20408;-46
2021/12/10 05:42:39;;;;;;;4.55;2.95;;;3.00;99.90;;;;;;4954263;28;20024;-45
2021/12/10 05:45:05;;;;;;;8.63;3.10;;;3.00;99.90;;;;;;4954416;28;20035;-46
2021/12/10 05:47:31;;;;;;;11.65;3.30;;;2.90;99.90;;;;;;4954411;29;20082;-44
2021/12/10 05:49:57;;;;;;;12.18;3.97;;;2.90;99.90;;;;;;4954130;29;20054;-45
2021/12/10 05:52:22;;;;;;;12.10;4.47;;;2.90;99.90;;;;;;4954408;28;20034;-45
2021/12/10 05:54:50;;;;;;;9.88;3.92;;;2.80;99.90;;;;;;4954229;28;20033;-46
2021/12/10 05:57:16;;;;;;;12.48;4.88;;;2.70;99.90;;;;;;4954417;28;20402;-45
2021/12/10 05:59:42;;;;;;;11.57;5.43;;;2.70;99.90;;;;;;4954559;28;20102;-45
2021/12/10 06:02:07;;;;;;;11.73;4.72;;;2.60;99.90;;;;;;4954250;29;20446;-47
2021/12/10 06:04:34;;;;;;;20.20;5.13;;;2.60;99.90;;;;;;4954095;29;20155;-47
2021/12/10 06:07:00;;;;;;;9.38;5.18;;;2.40;99.90;;;;;;4954184;28;20469;-47
2021/12/10 06:09:26;;;;;;;13.18;4.95;;;2.40;99.90;;;;;;4953870;28;20078;-45
2021/12/10 06:11:51;;;;;;;13.68;5.13;;;2.40;99.90;;;;;;4954058;29;20066;-45
2021/12/10 06:14:17;;;;;;;13.57;4.80;;;2.40;99.90;;;;;;4953491;28;20540;-46
2021/12/10 06:16:43;;;;;;;12.90;4.70;;;2.30;99.90;;;;;;4954076;28;20552;-45
2021/12/10 06:19:08;;;;;;;14.70;5.38;;;2.20;99.90;;;;;;4953747;28;20020;-42
2021/12/10 06:21:35;;;;;;;11.10;5.25;;;2.30;99.90;;;;;;4953945;28;20490;-46
2021/12/10 06:24:02;;;;;;;10.43;5.05;;;2.20;99.90;;;;;;4954399;28;20035;-48
2021/12/10 06:26:27;;;;;;;16.00;4.55;;;2.10;99.90;;;;;;4952652;28;20027;-49
2021/12/10 06:28:53;;;;;;;10.57;4.95;;;2.10;99.90;;;;;;4953375;28;20025;-46
2021/12/10 06:31:21;;;;;;;12.80;4.88;;;2.10;99.90;;;;;;4953504;29;20027;-52
2021/12/10 06:33:48;;;;;;;12.65;5.07;;;2.00;99.90;;;;;;4954580;28;20031;-45
2021/12/10 06:36:15;;;;;;;10.75;4.75;;;2.00;99.90;;;;;;4952581;29;20134;-46
2021/12/10 06:38:41;;;;;;;8.45;5.35;;;2.00;99.90;;;;;;4953592;28;20114;-48
2021/12/10 06:41:07;;;;;;;13.15;5.85;;;2.00;99.90;;;;;;4953575;28;20035;-47
2021/12/10 06:43:33;;;;;;;8.60;5.05;;;2.00;99.90;;;;;;4952441;28;20031;-48
2021/12/10 06:46:01;;;;;;;9.23;4.93;;;2.00;99.90;;;;;;4952347;28;20061;-44
2021/12/10 06:48:28;;;;;;;23.48;5.50;;;2.00;99.90;;;;;;4953462;28;20026;-49
2021/12/10 06:51:00;;;;;;;11.30;5.82;;;2.00;99.90;;;;;;4953449;28;20024;-46
2021/12/10 06:53:28;;;;;;;12.73;5.75;;;1.90;99.90;;;;;;4953392;28;20043;-44
2021/12/10 06:55:54;;;;;;;11.98;5.15;;;2.00;99.90;;;;;;4953393;28;20393;-45
2021/12/10 06:58:22;;;;;;;10.85;5.80;;;1.90;99.90;;;;;;4953511;28;20041;-44
2021/12/10 07:00:54;;;;;;;12.68;5.72;;;2.00;99.90;;;;;;4953343;29;20027;-44
2021/12/10 07:03:23;;;;;;;13.85;5.90;;;2.00;99.90;;;;;;4953515;29;20028;-43
2021/12/10 07:05:50;;;;;;;14.38;4.97;;;2.00;99.90;;;;;;4953338;28;20027;-43
2021/12/10 07:08:17;;;;;;;12.57;4.90;;;2.10;99.90;;;;;;4953770;28;20486;-44
2021/12/10 07:10:43;;;;;;;9.30;5.45;;;2.20;99.90;;;;;;4953546;28;20036;-44
2021/12/10 07:13:09;;;;;;;8.32;4.85;;;2.10;99.90;;;;;;4953680;28;20023;-46
2021/12/10 07:15:37;;;;;;;13.15;4.05;;;2.00;99.90;;;;;;4953370;28;20026;-47
2021/12/10 07:18:03;;;;;;;10.15;4.60;;;2.00;99.90;;;;;;4953392;28;20036;-49
2021/12/10 07:20:30;;;;;;;7.05;4.50;;;2.10;99.90;;;;;;4953161;28;20031;-47
2021/12/10 07:22:55;;;;;;;13.55;6.10;;;2.20;99.90;;;;;;4953529;29;20433;-45
2021/12/10 07:25:21;;;;;;;8.27;5.10;;;2.20;99.90;;;;;;4954720;28;20046;-44
2021/12/10 07:27:49;;;;;;;11.60;4.53;;;2.20;99.90;;;;;;4957053;28;20067;-44
2021/12/10 07:30:16;;;;;;;8.23;4.10;;;2.20;99.90;;;;;;4956684;28;20016;-44
2021/12/10 07:32:42;;;;;;;7.80;4.38;;;2.00;99.90;;;;;;4956956;29;20069;-45
2021/12/10 07:35:08;;;;;;;17.30;5.70;;;2.00;99.90;;;;;;4957057;28;20054;-56
2021/12/10 07:37:35;;;;;;;10.50;3.53;;;1.90;99.90;;;;;;4966030;28;20475;-49
2021/12/10 07:40:01;;;;;;;7.32;4.28;;;1.90;99.90;;;;;;4990830;28;20061;-49
2021/12/10 07:42:27;;;;;;;9.73;4.05;;;1.90;99.90;;;;;;4993682;28;20061;-45
2021/12/10 07:44:55;;;;;;;9.88;3.95;;;1.90;99.90;;;;;;4976076;28;20384;-48
2021/12/10 07:47:21;;;;;;;6.93;3.80;;;2.00;99.90;;;;;;4975979;28;20034;-47
2021/12/10 07:49:47;;;;;;;5.38;3.55;;;2.00;99.90;;;;;;4976040;28;20034;-54
2021/12/10 07:52:22;;;;;;;13.95;4.50;;;2.00;99.90;;;;;;4963604;28;20023;-51
2021/12/10 07:54:48;;;;;;;8.63;3.60;;;2.00;99.90;;;;;;4976006;28;20079;-47
2021/12/10 07:57:16;;;;;;;6.35;3.58;;;2.10;99.90;;;;;;4960535;28;20025;-49
2021/12/10 07:59:42;;;;;;;10.90;6.10;;;2.10;99.90;;;;;;4962091;28;20022;-47
2021/12/10 08:02:08;;;;;;;14.23;6.75;;;2.00;99.90;;;;;;4989688;28;20039;-47
2021/12/10 08:04:33;;;;;;;12.70;6.68;;;2.00;99.90;;;;;;4989529;28;20026;-47
2021/12/10 08:06:59;;;;;;;11.38;5.13;;;2.00;99.90;;;;;;4980350;28;20149;-48
2021/12/10 08:09:25;;;;;;;15.73;6.57;;;2.10;99.90;;;;;;4994826;28;20165;-45
2021/12/10 08:11:51;;;;;;;10.63;5.45;;;2.20;99.90;;;;;;4981685;28;20027;-47
2021/12/10 08:14:17;;;;;;;16.23;5.45;;;2.30;99.90;;;;;;4963097;28;20035;-45
2021/12/10 08:16:42;;;;;;;12.57;4.53;;;2.30;99.90;;;;;;4968064;28;20108;-46
2021/12/10 08:19:10;;;;;;;13.20;5.25;;;2.30;99.90;;;;;;4971850;28;20063;-44
2021/12/10 08:21:36;;;;;;;12.20;5.00;;;2.40;99.90;;;;;;4957126;28;20497;-47
2021/12/10 08:24:01;;;;;;;10.63;5.38;;;2.40;99.90;;;;;;4971667;28;20117;-49
2021/12/10 08:26:27;;;;;;;17.65;4.90;;;2.50;99.90;;;;;;4971686;28;20057;-47
2021/12/10 08:28:53;;;;;;;13.50;6.03;;;2.50;99.90;;;;;;4968333;28;20030;-44
2021/12/10 08:31:20;;;;;;;12.00;5.47;;;2.60;99.90;;;;;;4970362;28;20031;-49
2021/12/10 08:33:48;;;;;;;13.80;6.53;;;2.70;99.90;;;;;;4956728;28;20394;-48
2021/12/10 08:36:17;;;;;;;7.50;4.80;;;2.70;99.90;;;;;;4957652;28;20031;-50
2021/12/10 08:38:42;;;;;;;12.48;5.43;;;2.70;99.90;;;;;;4956577;28;20445;-56
2021/12/10 08:41:12;;;;;;;12.77;5.85;;;2.70;99.90;;;;;;4955651;29;20038;-49
2021/12/10 08:43:38;;;;;;;17.27;6.45;;;2.70;99.90;;;;;;4954422;28;20031;-50
2021/12/10 08:46:04;;;;;;;9.85;5.20;;;2.70;99.90;;;;;;4956121;29;20031;-50
2021/12/10 08:48:31;;;;;;;11.70;5.68;;;2.80;99.90;;;;;;4955814;29;20020;-51
2021/12/10 08:51:00;;;;;;;10.43;6.68;;;2.90;99.90;;;;;;4955074;28;20086;-52
2021/12/10 08:53:26;;;;;;;9.73;5.32;;;3.00;99.90;;;;;;4955565;28;20019;-53
2021/12/10 08:55:54;;;;;;;13.05;4.82;;;3.10;99.90;;;;;;4955401;28;20046;-56
2021/12/10 08:58:20;;;;;;;8.77;4.68;;;3.30;99.90;;;;;;4955456;28;20478;-51
2021/12/10 09:00:54;;;;;;;10.55;4.90;;;3.30;99.90;;;;;;4955149;28;20039;-52
2021/12/10 09:03:20;;;;;;;5.10;3.90;;;3.30;99.90;;;;;;4955623;29;20031;-49
2021/12/10 09:05:46;;;;;;;12.70;4.50;;;3.50;99.90;;;;;;4955346;29;20035;-53
2021/12/10 09:08:11;;;;;;;10.63;3.83;;;3.60;99.90;;;;;;4954022;28;20031;-53
2021/12/10 09:10:40;;;;;;;12.48;4.13;;;3.80;99.90;;;;;;4954966;29;20027;-54
2021/12/10 09:13:12;;;;;;;9.23;3.50;;;4.00;99.90;;;;;;4955003;28;20113;-50
2021/12/10 09:15:45;;;;;;;10.48;4.72;;;4.20;99.90;;;;;;4955073;28;20015;-54
2021/12/10 09:18:11;;;;;;;5.95;4.00;;;4.20;99.90;;;;;;4955170;29;20055;-54
2021/12/10 09:20:40;;;;;;;7.85;3.75;;;4.20;99.90;;;;;;4953547;28;20113;-51
2021/12/10 09:23:08;;;;;;;11.13;4.05;;;4.20;99.90;;;;;;4954876;29;20019;-51
2021/12/10 09:25:35;;;;;;;8.63;3.95;;;4.20;99.90;;;;;;4955040;29;20077;-50
2021/12/10 09:28:01;;;;;;;12.07;4.20;;;4.20;99.90;;;;;;4953605;28;20033;-51
2021/12/10 09:30:28;;;;;;;13.27;4.40;;;4.20;99.90;;;;;;4954661;28;20024;-50
2021/12/10 09:32:55;;;;;;;9.43;3.38;;;4.10;99.90;;;;;;4954987;28;20031;-50
2021/12/10 09:35:24;;;;;;;9.05;3.72;;;4.10;99.90;;;;;;4959219;28;20088;-55
2021/12/10 09:37:50;;;;;;;11.05;4.40;;;4.00;99.90;;;;;;4958872;29;20027;-56
2021/12/10 09:40:20;;;;;;;7.05;3.45;;;4.00;99.90;;;;;;4958334;29;20086;-57
2021/12/10 09:42:46;;;;;;;6.93;3.50;;;3.90;99.90;;;;;;4958419;29;20034;-56
2021/12/10 09:45:17;;;;;;;10.48;4.82;;;3.90;99.90;;;;;;4956679;28;20586;-52
2021/12/10 09:47:43;;;;;;;14.13;3.72;;;3.90;99.90;;;;;;4953881;28;20116;-49
2021/12/10 09:50:10;;;;;;;10.18;4.68;;;3.80;99.90;;;;;;4954074;28;20078;-50
2021/12/10 09:52:37;;;;;;;11.15;4.45;;;3.80;99.90;;;;;;4954329;28;20024;-49
2021/12/10 09:55:05;;;;;;;9.93;3.80;;;3.90;99.90;;;;;;4959051;28;20078;-49
2021/12/10 09:57:33;;;;;;;9.25;4.28;;;3.80;99.90;;;;;;4973678;28;20033;-49
2021/12/10 10:00:03;;;;;;;10.15;4.93;;;3.70;99.90;;;;;;4955335;28;20532;-46
2021/12/10 10:02:30;;;;;;;8.73;4.10;;;3.60;99.90;;;;;;4983422;28;20031;-55
2021/12/10 10:04:56;;;;;;;9.10;4.35;;;3.50;99.90;;;;;;4981771;28;20437;-49
2021/12/10 10:07:28;;;;;;;14.50;4.80;;;3.60;99.90;;;;;;4973503;28;20113;-49
2021/12/10 10:09:58;;;;;;;10.35;5.60;;;3.50;99.90;;;;;;4959334;28;20023;-53
2021/12/10 10:12:30;;;;;;;15.20;5.53;;;3.60;99.90;;;;;;4975604;28;20076;-49
2021/12/10 10:14:56;;;;;;;8.52;4.95;;;3.60;99.90;;;;;;4992760;28;20021;-48
2021/12/10 10:17:23;;;;;;;9.52;4.13;;;3.60;99.90;;;;;;4980249;28;20025;-48
2021/12/10 10:19:51;;;;;;;11.00;4.10;;;3.60;99.90;;;;;;4972983;28;20045;-50
2021/12/10 10:22:21;;;;;;;7.57;3.60;;;3.50;99.90;;;;;;4973067;28;20126;-47
2021/12/10 10:24:46;;;;;;;9.18;3.55;;;3.60;99.90;;;;;;4973288;28;20034;-48
2021/12/10 10:27:16;;;;;;;17.13;5.15;;;3.70;99.90;;;;;;4973165;28;20027;-54
2021/12/10 10:29:47;;;;;;;12.18;3.45;;;3.70;99.90;;;;;;4972801;28;20053;-41
2021/12/10 10:32:16;;;;;;;6.95;2.85;;;3.60;99.90;;;;;;4973128;28;20042;-44
2021/12/10 10:34:47;;;;;;;17.05;3.75;;;3.80;99.90;;;;;;4972959;28;20035;-43
2021/12/10 10:37:13;;;;;;;6.75;3.63;;;3.80;99.90;;;;;;4973005;28;20050;-44
2021/12/10 10:39:41;;;;;;;6.03;3.60;;;3.80;99.90;;;;;;4971738;28;20396;-46
2021/12/10 10:42:11;;;;;;;10.15;3.78;;;3.80;99.90;;;;;;4973469;28;20022;-42
2021/12/10 10:44:38;;;;;;;7.60;3.20;;;3.90;99.90;;;;;;4972928;28;20109;-43
2021/12/10 10:47:04;;;;;;;9.20;3.38;;;3.90;99.90;;;;;;4972862;28;20031;-42
2021/12/10 10:49:35;;;;;;;5.68;3.30;;;3.90;99.90;;;;;;4973310;28;20089;-44
2021/12/10 10:52:30;;;;;;;15.48;3.67;;;4.10;99.90;;;;;;4972063;28;20181;-43
2021/12/10 10:55:14;;;;;;;8.63;3.72;;;4.10;99.90;;;;;;4968556;28;20026;-46
2021/12/10 10:57:54;;;;;;;9.10;3.10;;;4.20;99.90;;;;;;4979294;28;20388;-42
2021/12/10 11:00:37;;;;;;;9.60;3.50;;;4.10;99.90;;;;;;4975611;28;20030;-43
2021/12/10 11:03:15;;;;;;;8.15;3.17;;;4.20;99.90;;;;;;4976489;28;20018;-45
2021/12/10 11:05:53;;;;;;;5.63;3.53;;;4.30;99.90;;;;;;4971793;28;20058;-45
2021/12/10 11:08:26;;;;;;;6.72;3.05;;;4.30;99.90;;;;;;4977118;28;20027;-44
2021/12/10 11:10:58;;;;;;;9.98;3.40;;;4.30;99.90;;;;;;4957464;28;20190;-44
2021/12/10 11:13:25;;;;;;;9.45;4.20;;;4.40;99.90;;;;;;4966278;28;20106;-49
2021/12/10 11:16:12;;;;;;;12.05;3.38;;;4.30;99.90;;;;;;4984580;28;20320;-47
2021/12/10 11:19:06;;;;;;;9.90;3.65;;;4.30;99.90;;;;;;4992182;28;20026;-44
2021/12/10 11:21:43;;;;;;;18.77;9.07;;;4.30;99.90;;;;;;4976470;28;20032;-44
2021/12/10 11:24:13;;;;;;;7.57;3.53;;;4.40;99.90;;;;;;4976355;28;20026;-43
2021/12/10 11:27:04;;;;;;;10.40;3.80;;;4.50;99.90;;;;;;4975779;28;20053;-43
2021/12/10 11:29:38;;;;;;;10.32;2.83;;;4.60;99.90;;;;;;4981375;28;20045;-48
2021/12/10 11:32:09;;;;;;;8.57;3.50;;;4.70;99.90;;;;;;4977826;28;20420;-47
2021/12/10 11:35:01;;;;;;;9.05;3.20;;;4.70;99.90;;;;;;4992869;28;20038;-46
2021/12/10 11:37:49;;;;;;;5.30;2.63;;;4.70;99.90;;;;;;4963024;28;20026;-46
2021/12/10 11:40:31;;;;;;;5.30;2.58;;;4.70;99.90;;;;;;4959060;28;20035;-50
2021/12/10 11:43:02;;;;;;;4.38;2.95;;;4.70;99.90;;;;;;4960226;28;20042;-49
2021/12/10 11:45:42;;;;;;;4.20;2.50;;;4.70;99.90;;;;;;4955697;28;20056;-45
2021/12/10 11:48:13;;;;;;;5.05;2.38;;;4.80;99.90;;;;;;4958224;28;20115;-46
2021/12/10 11:50:46;;;;;;;5.03;2.92;;;4.70;99.90;;;;;;4957232;28;20078;-47
2021/12/10 11:53:15;;;;;;;2.95;2.33;;;4.70;99.90;;;;;;4956892;28;20031;-47
2021/12/10 11:56:02;;;;;;;6.03;2.67;;;4.70;99.90;;;;;;4986591;28;20027;-49
2021/12/10 11:58:27;;;;;;;7.50;3.05;;;4.60;99.90;;;;;;4976239;28;20440;-45
2021/12/10 12:00:54;;;;;;;2.35;2.08;;;4.50;99.90;;;;;;4968504;28;20027;-45
2021/12/10 12:03:23;;;;;;;4.10;2.70;;;4.40;99.90;;;;;;4956192;28;20536;-48
2021/12/10 12:05:49;;;;;;;7.97;2.08;;;4.40;99.90;;;;;;4972859;28;20400;-46
2021/12/10 12:08:18;;;;;;;2.45;2.10;;;4.10;99.90;;;;;;4974847;28;20392;-44
2021/12/10 12:10:51;;;;;;;5.75;2.17;;;4.10;99.90;;;;;;4968418;28;20019;-44
2021/12/10 12:13:30;;;;;;;3.38;2.20;;;3.90;99.90;;;;;;4995499;28;20097;-42
2021/12/10 12:16:06;;;;;;;5.75;2.35;;;3.90;99.90;;;;;;4976574;28;20104;-48
2021/12/10 12:18:36;;;;;;;5.00;2.70;;;3.90;99.90;;;;;;4957172;28;20037;-45
2021/12/10 12:26:52;;;;;;;13.32;8.25;;;3.80;99.90;;;;;;4956057;29;20132;-41
2021/12/10 12:29:18;;;;;;;6.30;4.00;;;3.70;99.90;;;;;;4955251;28;20023;-44
2021/12/10 12:31:45;;;;;;;2.55;2.35;;;3.70;99.90;;;;;;4954551;28;20027;-46
2021/12/10 12:34:18;;;;;;;7.05;2.80;;;3.70;99.90;;;;;;4956627;29;20118;-46
2021/12/10 12:37:17;;;;;;;15.10;3.08;;;3.80;99.90;;;;;;4955668;28;20071;-47
2021/12/10 12:39:53;;;;;;;4.90;3.22;;;3.90;99.90;;;;;;4964310;28;20043;-48
2021/12/10 12:42:29;;;;;;;5.38;3.40;;;4.10;99.90;;;;;;4955657;28;20023;-43
2021/12/10 12:44:59;;;;;;;7.45;3.15;;;4.00;99.90;;;;;;4956366;28;20034;-45
2021/12/10 12:47:40;;;;;;;5.72;3.30;;;4.10;99.90;;;;;;4956089;29;20035;-45
2021/12/10 12:50:17;;;;;;;7.78;4.18;;;4.10;99.90;;;;;;4955339;28;20027;-49
2021/12/10 12:52:46;;;;;;;10.68;5.68;;;4.10;99.90;;;;;;4955614;29;20023;-48
2021/12/10 12:55:31;;;;;;;10.57;4.40;;;4.10;99.90;;;;;;4955468;28;20537;-47
2021/12/10 12:58:03;;;;;;;11.88;4.93;;;4.20;99.90;;;;;;4955530;28;20038;-45
2021/12/10 13:00:44;;;;;;;6.60;3.60;;;4.10;99.90;;;;;;4955044;29;20027;-45
2021/12/10 13:03:29;;;;;;;11.02;4.07;;;4.10;99.90;;;;;;4955151;28;20027;-44
2021/12/10 13:06:21;;;;;;;11.48;2.85;;;4.10;99.90;;;;;;4955369;29;20019;-43
2021/12/10 13:09:09;;;;;;;5.22;3.70;;;4.00;99.90;;;;;;4955514;28;20122;-44
2021/12/10 13:14:35;;;;;;;6.97;3.17;;;4.00;99.90;;;;;;4955991;28;20052;-45
2021/12/10 13:17:15;;;;;;;11.80;5.82;;;4.10;99.90;;;;;;4955142;28;20501;-49
2021/12/10 13:19:41;;;;;;;6.55;4.38;;;4.30;99.90;;;;;;4955059;28;20047;-48
2021/12/10 13:22:10;;;;;;;15.48;4.78;;;4.20;99.90;;;;;;4954638;28;20516;-48